Terminal Aerodrome Forecast
Issued by NWS Louisville, KY

Home | Current Version | Previous Version | Text Only | Print | Product List | Glossary On
Versions: 1 2 3 4 5 6 7 8 9 10 11 12 13 14 15 16 17
818
FTUS43 KLMK 292342 CCA
TAFLEX
TAF COR
KLEX 292342Z 3000/3024 17010KT P6SM VCTS SCT070CB
      TEMPO 3000/3001 VRB15G25KT
     FM300100 17010KT P6SM FEW100
     FM300400 17009KT P6SM FEW250 WS020/18040KT
     FM301400 19016G24KT P6SM SCT120 BKN250=

USA.gov is the U.S. government's official web portal to all federal, state and local government web resources and services.